createdAt,value
2023-06-03T00:04:35.257Z,97162.13
2023-06-03T00:14:38.725Z,97160.20
2023-06-03T00:24:42.624Z,97168.71
2023-06-03T00:34:46.899Z,97176.14
2023-06-03T00:44:50.375Z,97180.74
2023-06-03T00:54:54.342Z,97178.73
2023-06-03T01:04:58.698Z,97191.53
2023-06-03T01:15:11.166Z,97191.42
2023-06-03T01:25:22.437Z,97192.02
2023-06-03T01:35:53.618Z,97194.26
2023-06-03T01:45:58.302Z,97196.66
2023-06-03T01:56:02.732Z,97195.55
2023-06-03T02:06:08.032Z,97195.57
2023-06-03T02:16:13.376Z,97206.70
2023-06-03T02:26:24.754Z,97218.48
2023-06-03T02:36:28.392Z,97227.48
2023-06-03T02:46:32.646Z,97232.66
2023-06-03T02:56:37.678Z,97239.97
2023-06-03T03:06:42.288Z,97237.16
2023-06-03T03:16:47.270Z,97251.26
2023-06-03T03:26:51.550Z,97263.48
2023-06-03T03:36:56.569Z,97272.54
2023-06-03T03:47:04.848Z,97281.86
2023-06-03T03:57:14.064Z,97285.14
2023-06-03T04:07:22.665Z,97296.25
2023-06-03T04:18:44.669Z,97298.05
2023-06-03T04:28:48.361Z,97298.59
2023-06-03T04:38:52.725Z,97299.56
2023-06-03T04:48:58.564Z,97300.37
2023-06-03T04:59:06.520Z,97303.34
2023-06-03T05:09:22.338Z,97304.65
2023-06-03T05:19:53.695Z,97307.63
2023-06-03T05:29:57.547Z,97313.06
2023-06-03T05:40:01.769Z,97311.89
2023-06-03T05:50:08.037Z,97308.33
2023-06-03T06:00:12.728Z,97312.08
2023-06-03T06:10:19.102Z,97317.33
2023-06-03T06:20:23.505Z,97325.55
2023-06-03T06:30:27.441Z,97332.11
2023-06-03T06:40:34.758Z,97345.13
2023-06-03T06:51:00.632Z,97334.55
2023-06-03T07:01:11.786Z,97334.23
2023-06-03T07:11:24.179Z,97338.05
2023-06-03T07:21:34.424Z,97339.75
2023-06-03T07:31:38.851Z,97348.46
2023-06-03T07:41:47.002Z,97356.69
2023-06-03T07:51:58.947Z,97364.16
2023-06-03T08:02:02.954Z,97374.53
2023-06-03T08:12:08.686Z,97373.97
2023-06-03T08:22:30.095Z,97375.74
2023-06-03T08:32:37.710Z,97376.29
2023-06-03T08:42:49.635Z,97374.47
2023-06-03T08:52:54.376Z,97374.70
2023-06-03T09:02:58.112Z,97384.34
2023-06-03T09:13:08.802Z,97381.13
2023-06-03T09:23:14.287Z,97378.44
2023-06-03T09:33:17.953Z,97366.11
2023-06-03T09:43:21.962Z,97374.08
2023-06-03T09:53:25.544Z,97358.63
2023-06-03T10:03:30.133Z,97357.73
2023-06-03T10:13:35.190Z,97350.35
2023-06-03T10:23:40.711Z,97349.38
2023-06-03T10:33:44.898Z,97350.51
2023-06-03T10:43:48.287Z,97345.75
2023-06-03T10:54:20.669Z,97338.23
2023-06-03T11:04:26.845Z,97335.20
2023-06-03T11:14:49.799Z,97327.61
2023-06-03T11:24:53.555Z,97323.05
2023-06-03T11:35:06.172Z,97326.08
2023-06-03T11:45:38.958Z,97329.91
2023-06-03T11:55:42.651Z,97323.80
2023-06-03T12:05:59.064Z,97314.03
2023-06-03T12:16:02.271Z,97304.52
2023-06-03T12:26:05.963Z,97299.81
2023-06-03T12:36:09.998Z,97300.14
2023-06-03T12:46:17.885Z,97285.00
2023-06-03T12:56:22.336Z,97280.09
2023-06-03T13:06:27.194Z,97276.91
2023-06-03T13:16:31.569Z,97262.77
2023-06-03T13:26:34.956Z,97258.25
2023-06-03T13:37:02.868Z,97260.90
2023-06-03T13:47:06.576Z,97251.80
2023-06-03T13:57:10.762Z,97246.30
2023-06-03T14:07:40.291Z,97244.95
2023-06-03T14:17:44.628Z,97243.63
2023-06-03T14:27:48.178Z,97237.92
2023-06-03T14:37:51.526Z,97228.58
2023-06-03T14:47:54.855Z,97227.37
2023-06-03T14:57:58.168Z,97220.23
2023-06-03T15:08:02.988Z,97214.77
2023-06-03T15:18:07.112Z,97207.90
2023-06-03T15:28:11.387Z,97204.81
2023-06-03T15:38:40.332Z,97192.23
2023-06-03T15:48:43.866Z,97186.94
2023-06-03T15:58:49.436Z,97186.72
2023-06-03T16:08:54.117Z,97176.71
2023-06-03T16:18:58.393Z,97176.52
2023-06-03T16:29:01.811Z,97178.27
2023-06-03T16:39:05.335Z,97176.47
2023-06-03T16:49:08.687Z,97181.29
2023-06-03T16:59:16.363Z,97177.48
2023-06-03T17:09:20.998Z,97177.16
2023-06-03T17:19:25.877Z,97178.61
2023-06-03T17:29:29.358Z,97178.38
2023-06-03T17:39:33.255Z,97180.84
2023-06-03T17:50:01.506Z,97183.94
2023-06-03T18:00:05.946Z,97188.08
2023-06-03T18:10:16.172Z,97188.77
2023-06-03T18:20:19.903Z,97191.23
2023-06-03T18:30:23.112Z,97199.70
2023-06-03T18:40:26.627Z,97212.30
2023-06-03T18:50:30.467Z,97222.05
2023-06-03T19:00:37.232Z,97235.39
2023-06-03T19:10:41.477Z,97245.27
2023-06-03T19:20:46.961Z,97259.30
2023-06-03T19:30:50.059Z,97263.86
2023-06-03T19:40:53.763Z,97275.27
2023-06-03T19:50:57.600Z,97280.65
2023-06-03T20:01:00.837Z,97291.87
2023-06-03T20:11:07.073Z,97299.52
2023-06-03T20:21:10.436Z,97302.25
2023-06-03T20:31:39.537Z,97305.63
2023-06-03T20:42:08.886Z,97304.57
2023-06-03T20:52:37.529Z,97303.75
2023-06-03T21:02:40.821Z,97299.92
2023-06-03T21:12:44.382Z,97300.11
2023-06-03T21:22:48.122Z,97296.81
2023-06-03T21:32:51.884Z,97297.41
2023-06-03T21:42:55.644Z,97304.58
2023-06-03T21:52:58.932Z,97311.54
2023-06-03T22:03:03.641Z,97310.04
2023-06-03T22:13:08.382Z,97298.19
2023-06-03T22:23:11.548Z,97293.50
2023-06-03T22:33:15.160Z,97295.80
2023-06-03T22:43:21.330Z,97288.71
2023-06-03T22:53:25.636Z,97288.11
2023-06-03T23:03:33.113Z,97285.30
2023-06-03T23:14:01.840Z,97289.45
2023-06-03T23:24:31.074Z,97288.14
2023-06-03T23:34:34.599Z,97284.69
2023-06-03T23:44:37.943Z,97280.99
2023-06-03T23:54:42.035Z,97280.86
